SHT1480 EGKK-EGPF
Flight info
| Callsign | SHT1480 |
|---|---|
| Flight time | 0h 59m |
| Altitude | 38000 |
| Route | LAM L10 BPK UN601 RIBEL DCT ASLIB |
| Aircraft | A20N/M-SDE2E3FGHIRWXY/LB1 |
Departure
| Time | 2026-05-04 14:15 |
|---|---|
| Airport | London Gatwick Airport (EGKK) |
Arrival
| Time | 2026-05-04 15:14 |
|---|---|
| Airport | Glasgow Airport (EGPF) |
| Time | Latitude | Longitude | Altitude | Speed | Heading |
|---|---|---|---|---|---|
| 2026-05-04 13:54 | 51.15565 | -0.17821 | 207 ft | 0 kts | 347° |
| 2026-05-04 14:03 | 51.15552 | -0.17810 | 217 ft | 2 kts | 320° |
| 2026-05-04 14:04 | 51.15522 | -0.17793 | 215 ft | 2 kts | 340° |
| 2026-05-04 14:04 | 51.15508 | -0.17780 | 214 ft | 2 kts | 298° |
| 2026-05-04 14:04 | 51.15505 | -0.17767 | 213 ft | 0 kts | 266° |
| 2026-05-04 14:05 | 51.15505 | -0.17766 | 213 ft | 0 kts | 265° |
| 2026-05-04 14:06 | 51.15504 | -0.17767 | 214 ft | 0 kts | 257° |
| 2026-05-04 14:08 | 51.15493 | -0.17843 | 204 ft | 12 kts | 257° |
| 2026-05-04 14:08 | 51.15470 | -0.18006 | 209 ft | 17 kts | 257° |
| 2026-05-04 14:08 | 51.15441 | -0.18206 | 208 ft | 19 kts | 257° |
| 2026-05-04 14:09 | 51.15212 | -0.18229 | 210 ft | 17 kts | 201° |
| 2026-05-04 14:09 | 51.15177 | -0.18392 | 207 ft | 17 kts | 258° |
| 2026-05-04 14:10 | 51.15109 | -0.18860 | 211 ft | 28 kts | 258° |
| 2026-05-04 14:10 | 51.15066 | -0.19177 | 205 ft | 31 kts | 258° |
| 2026-05-04 14:10 | 51.15024 | -0.19521 | 209 ft | 33 kts | 259° |
| 2026-05-04 14:10 | 51.14973 | -0.19881 | 213 ft | 34 kts | 257° |
| 2026-05-04 14:11 | 51.14920 | -0.20261 | 206 ft | 36 kts | 253° |
| 2026-05-04 14:11 | 51.14805 | -0.21057 | 208 ft | 38 kts | 255° |
| 2026-05-04 14:11 | 51.14766 | -0.21315 | 209 ft | 18 kts | 256° |
| 2026-05-04 14:12 | 51.14734 | -0.21401 | 211 ft | 0 kts | 192° |
| 2026-05-04 14:13 | 51.14700 | -0.21400 | 207 ft | 12 kts | 169° |
| 2026-05-04 14:13 | 51.14603 | -0.21325 | 209 ft | 21 kts | 165° |
| 2026-05-04 14:14 | 51.14545 | -0.20985 | 210 ft | 61 kts | 76° |
| 2026-05-04 14:14 | 51.14815 | -0.19063 | 213 ft | 146 kts | 78° |
| 2026-05-04 14:14 | 51.14932 | -0.18207 | 263 ft | 160 kts | 78° |
| 2026-05-04 14:15 | 51.15290 | -0.15011 | 1596 ft | 149 kts | 78° |
| 2026-05-04 14:15 | 51.15740 | -0.11485 | 2714 ft | 179 kts | 78° |
| 2026-05-04 14:16 | 51.16846 | -0.07720 | 4151 ft | 196 kts | 56° |
| 2026-05-04 14:16 | 51.17617 | -0.05895 | 4890 ft | 206 kts | 55° |
| 2026-05-04 14:17 | 51.19493 | -0.01535 | 5641 ft | 264 kts | 57° |
| 2026-05-04 14:17 | 51.20511 | 0.00979 | 6445 ft | 274 kts | 56° |
| 2026-05-04 14:17 | 51.23554 | 0.04444 | 8282 ft | 282 kts | 11° |
| 2026-05-04 14:18 | 51.25530 | 0.04465 | 9226 ft | 287 kts | 351° |
| 2026-05-04 14:18 | 51.29493 | 0.02975 | 10652 ft | 312 kts | 346° |
| 2026-05-04 14:19 | 51.33266 | 0.01607 | 11406 ft | 344 kts | 348° |
| 2026-05-04 14:19 | 51.35421 | 0.00935 | 12210 ft | 348 kts | 348° |
| 2026-05-04 14:19 | 51.37823 | 0.00222 | 12761 ft | 353 kts | 349° |
| 2026-05-04 14:19 | 51.40248 | -0.00484 | 12945 ft | 354 kts | 349° |
| 2026-05-04 14:20 | 51.42659 | -0.01183 | 13004 ft | 356 kts | 349° |
| 2026-05-04 14:20 | 51.45092 | -0.01894 | 13007 ft | 356 kts | 347° |
| 2026-05-04 14:20 | 51.47538 | -0.02659 | 13390 ft | 360 kts | 347° |
| 2026-05-04 14:21 | 51.52484 | -0.04186 | 15001 ft | 367 kts | 348° |
| 2026-05-04 14:21 | 51.54976 | -0.04923 | 15696 ft | 372 kts | 348° |
| 2026-05-04 14:21 | 51.57537 | -0.05669 | 16403 ft | 376 kts | 348° |
| 2026-05-04 14:21 | 51.60130 | -0.06418 | 17123 ft | 381 kts | 348° |
| 2026-05-04 14:22 | 51.62757 | -0.07177 | 17820 ft | 386 kts | 348° |
| 2026-05-04 14:22 | 51.65417 | -0.07948 | 18484 ft | 391 kts | 348° |
| 2026-05-04 14:22 | 51.68105 | -0.08728 | 19129 ft | 394 kts | 348° |
| 2026-05-04 14:22 | 51.69416 | -0.09109 | 19452 ft | 395 kts | 348° |
| 2026-05-04 14:23 | 51.73670 | -0.10556 | 20442 ft | 399 kts | 341° |
| 2026-05-04 14:23 | 51.76267 | -0.12146 | 21090 ft | 400 kts | 333° |
| 2026-05-04 14:23 | 51.78264 | -0.13848 | 21595 ft | 401 kts | 327° |
| 2026-05-04 14:24 | 51.80707 | -0.16196 | 22215 ft | 405 kts | 327° |
| 2026-05-04 14:24 | 51.83140 | -0.18501 | 22864 ft | 406 kts | 327° |
| 2026-05-04 14:24 | 51.85587 | -0.20819 | 23466 ft | 410 kts | 327° |
| 2026-05-04 14:24 | 51.88055 | -0.23165 | 23986 ft | 413 kts | 327° |
| 2026-05-04 14:25 | 51.90538 | -0.25531 | 24467 ft | 416 kts | 327° |
| 2026-05-04 14:25 | 51.95571 | -0.30344 | 25397 ft | 423 kts | 327° |
| 2026-05-04 14:25 | 51.98114 | -0.32779 | 25863 ft | 426 kts | 327° |
| 2026-05-04 14:26 | 52.00642 | -0.35204 | 26307 ft | 430 kts | 327° |
| 2026-05-04 14:26 | 52.03221 | -0.37683 | 26743 ft | 433 kts | 327° |
| 2026-05-04 14:26 | 52.05820 | -0.40186 | 27225 ft | 434 kts | 327° |
| 2026-05-04 14:26 | 52.08405 | -0.42680 | 27685 ft | 437 kts | 327° |
| 2026-05-04 14:27 | 52.11022 | -0.45207 | 28069 ft | 440 kts | 327° |
| 2026-05-04 14:27 | 52.13664 | -0.47760 | 28477 ft | 443 kts | 327° |
| 2026-05-04 14:27 | 52.16105 | -0.50121 | 28820 ft | 445 kts | 327° |
| 2026-05-04 14:27 | 52.18776 | -0.52711 | 29196 ft | 448 kts | 327° |
| 2026-05-04 14:28 | 52.21425 | -0.55284 | 29552 ft | 451 kts | 326° |
| 2026-05-04 14:28 | 52.24066 | -0.57852 | 29890 ft | 453 kts | 326° |
| 2026-05-04 14:28 | 52.26837 | -0.60552 | 30247 ft | 456 kts | 326° |
| 2026-05-04 14:28 | 52.29567 | -0.63217 | 30601 ft | 457 kts | 327° |
| 2026-05-04 14:29 | 52.35032 | -0.68561 | 31300 ft | 460 kts | 327° |
| 2026-05-04 14:29 | 52.40525 | -0.73946 | 32088 ft | 460 kts | 328° |
| 2026-05-04 14:30 | 52.43212 | -0.76586 | 32466 ft | 460 kts | 328° |
| 2026-05-04 14:30 | 52.45913 | -0.79244 | 32845 ft | 460 kts | 328° |
| 2026-05-04 14:30 | 52.51392 | -0.84649 | 33594 ft | 459 kts | 328° |
| 2026-05-04 14:31 | 52.54129 | -0.87356 | 33996 ft | 458 kts | 328° |
| 2026-05-04 14:31 | 52.59578 | -0.92757 | 34599 ft | 458 kts | 328° |
| 2026-05-04 14:32 | 52.64997 | -0.98141 | 35125 ft | 457 kts | 328° |
| 2026-05-04 14:32 | 52.67713 | -1.00846 | 35415 ft | 457 kts | 329° |
| 2026-05-04 14:32 | 52.70354 | -1.03482 | 35673 ft | 457 kts | 329° |
| 2026-05-04 14:32 | 52.73072 | -1.06197 | 35898 ft | 457 kts | 329° |
| 2026-05-04 14:33 | 52.75792 | -1.08915 | 36158 ft | 458 kts | 329° |
| 2026-05-04 14:33 | 52.78504 | -1.11633 | 36477 ft | 455 kts | 329° |
| 2026-05-04 14:33 | 52.81205 | -1.14343 | 36717 ft | 455 kts | 329° |
| 2026-05-04 14:33 | 52.83911 | -1.17060 | 36965 ft | 454 kts | 329° |
| 2026-05-04 14:34 | 52.86615 | -1.19780 | 37151 ft | 455 kts | 328° |
| 2026-05-04 14:34 | 52.89320 | -1.22505 | 37359 ft | 456 kts | 328° |
| 2026-05-04 14:34 | 52.92027 | -1.25237 | 37570 ft | 456 kts | 328° |
| 2026-05-04 14:34 | 52.94645 | -1.27881 | 37793 ft | 455 kts | 328° |
| 2026-05-04 14:35 | 52.95337 | -1.28580 | 37842 ft | 455 kts | 328° |
| 2026-05-04 14:35 | 52.97570 | -1.30838 | 38017 ft | 455 kts | 328° |
| 2026-05-04 14:35 | 53.00268 | -1.33569 | 38054 ft | 454 kts | 328° |
| 2026-05-04 14:36 | 53.05631 | -1.39017 | 38062 ft | 451 kts | 328° |
| 2026-05-04 14:36 | 53.10988 | -1.44475 | 38055 ft | 452 kts | 328° |
| 2026-05-04 14:37 | 53.16136 | -1.49736 | 38074 ft | 452 kts | 328° |
| 2026-05-04 14:37 | 53.21448 | -1.55182 | 38063 ft | 451 kts | 328° |
| 2026-05-04 14:38 | 53.26794 | -1.60678 | 38071 ft | 451 kts | 328° |
| 2026-05-04 14:38 | 53.32131 | -1.66180 | 38067 ft | 451 kts | 328° |
| 2026-05-04 14:39 | 53.37360 | -1.71587 | 38064 ft | 451 kts | 328° |
| 2026-05-04 14:39 | 53.42657 | -1.77081 | 38069 ft | 451 kts | 328° |
| 2026-05-04 14:40 | 53.50655 | -1.85404 | 38062 ft | 449 kts | 328° |
| 2026-05-04 14:40 | 53.53256 | -1.88115 | 38060 ft | 438 kts | 328° |
| 2026-05-04 14:40 | 53.55845 | -1.90819 | 38058 ft | 441 kts | 328° |
| 2026-05-04 14:41 | 53.61114 | -1.96334 | 38057 ft | 450 kts | 328° |
| 2026-05-04 14:42 | 53.71259 | -2.07021 | 38059 ft | 451 kts | 328° |
| 2026-05-04 14:42 | 53.76750 | -2.11938 | 38054 ft | 443 kts | 339° |
| 2026-05-04 14:43 | 53.82213 | -2.15626 | 38050 ft | 445 kts | 338° |
| 2026-05-04 14:43 | 53.87910 | -2.19545 | 38046 ft | 445 kts | 338° |
| 2026-05-04 14:44 | 53.93649 | -2.23486 | 38041 ft | 445 kts | 338° |
| 2026-05-04 14:44 | 53.99378 | -2.27424 | 38042 ft | 443 kts | 338° |
| 2026-05-04 14:45 | 54.04889 | -2.32045 | 38046 ft | 442 kts | 332° |
| 2026-05-04 14:45 | 54.10239 | -2.37048 | 38047 ft | 442 kts | 332° |
| 2026-05-04 14:46 | 54.15639 | -2.42096 | 38044 ft | 443 kts | 332° |
| 2026-05-04 14:46 | 54.20578 | -2.46742 | 37882 ft | 442 kts | 332° |
| 2026-05-04 14:47 | 54.23260 | -2.49272 | 37615 ft | 441 kts | 331° |
| 2026-05-04 14:47 | 54.25929 | -2.51796 | 37244 ft | 436 kts | 331° |
| 2026-05-04 14:47 | 54.28579 | -2.54307 | 36713 ft | 434 kts | 332° |
| 2026-05-04 14:47 | 54.31171 | -2.56766 | 36420 ft | 432 kts | 332° |
| 2026-05-04 14:48 | 54.33534 | -2.59009 | 36188 ft | 439 kts | 332° |
| 2026-05-04 14:48 | 54.36219 | -2.61560 | 35995 ft | 441 kts | 332° |
| 2026-05-04 14:48 | 54.38897 | -2.64108 | 35640 ft | 439 kts | 332° |
| 2026-05-04 14:48 | 54.41562 | -2.66648 | 35075 ft | 438 kts | 332° |
| 2026-05-04 14:49 | 54.44227 | -2.69191 | 34385 ft | 438 kts | 332° |
| 2026-05-04 14:49 | 54.46894 | -2.71741 | 33613 ft | 440 kts | 332° |
| 2026-05-04 14:49 | 54.49559 | -2.74291 | 32962 ft | 436 kts | 332° |
| 2026-05-04 14:49 | 54.52170 | -2.76795 | 32213 ft | 436 kts | 332° |
| 2026-05-04 14:50 | 54.54818 | -2.79339 | 31424 ft | 436 kts | 332° |
| 2026-05-04 14:50 | 54.57334 | -2.81760 | 30687 ft | 436 kts | 332° |
| 2026-05-04 14:50 | 54.59983 | -2.84312 | 30011 ft | 434 kts | 332° |
| 2026-05-04 14:50 | 54.62605 | -2.86842 | 29311 ft | 430 kts | 332° |
| 2026-05-04 14:51 | 54.65197 | -2.89346 | 28612 ft | 426 kts | 332° |
| 2026-05-04 14:51 | 54.67766 | -2.91831 | 28071 ft | 420 kts | 332° |
| 2026-05-04 14:51 | 54.70244 | -2.94232 | 27788 ft | 418 kts | 332° |
| 2026-05-04 14:51 | 54.72783 | -2.96693 | 27495 ft | 417 kts | 331° |
| 2026-05-04 14:52 | 54.75302 | -2.99135 | 27256 ft | 416 kts | 331° |
| 2026-05-04 14:52 | 54.77820 | -3.01583 | 26980 ft | 413 kts | 331° |
| 2026-05-04 14:52 | 54.80311 | -3.04011 | 26515 ft | 412 kts | 331° |
| 2026-05-04 14:52 | 54.82804 | -3.06442 | 26140 ft | 408 kts | 331° |
| 2026-05-04 14:53 | 54.85263 | -3.08846 | 25924 ft | 405 kts | 331° |
| 2026-05-04 14:53 | 54.87721 | -3.11253 | 25636 ft | 406 kts | 330° |
| 2026-05-04 14:53 | 54.90167 | -3.13652 | 25222 ft | 402 kts | 330° |
| 2026-05-04 14:53 | 54.92603 | -3.16045 | 24392 ft | 402 kts | 330° |
| 2026-05-04 14:54 | 54.94980 | -3.18381 | 23932 ft | 394 kts | 330° |
| 2026-05-04 14:54 | 54.97350 | -3.20714 | 23383 ft | 391 kts | 330° |
| 2026-05-04 14:54 | 54.99713 | -3.23040 | 22452 ft | 390 kts | 330° |
| 2026-05-04 14:54 | 55.02059 | -3.25352 | 21668 ft | 383 kts | 329° |
| 2026-05-04 14:55 | 55.04282 | -3.27546 | 20929 ft | 381 kts | 329° |
| 2026-05-04 14:55 | 55.06569 | -3.29811 | 20308 ft | 378 kts | 329° |
| 2026-05-04 14:55 | 55.08854 | -3.32076 | 19740 ft | 375 kts | 329° |
| 2026-05-04 14:55 | 55.11085 | -3.34291 | 19179 ft | 373 kts | 329° |
| 2026-05-04 14:56 | 55.13322 | -3.36514 | 18663 ft | 369 kts | 329° |
| 2026-05-04 14:56 | 55.15545 | -3.38724 | 18103 ft | 366 kts | 329° |
| 2026-05-04 14:56 | 55.17746 | -3.40919 | 17494 ft | 363 kts | 329° |
| 2026-05-04 14:56 | 55.19928 | -3.43097 | 16913 ft | 359 kts | 329° |
| 2026-05-04 14:57 | 55.22093 | -3.45259 | 16345 ft | 357 kts | 328° |
| 2026-05-04 14:57 | 55.24023 | -3.47186 | 15903 ft | 352 kts | 328° |
| 2026-05-04 14:57 | 55.26107 | -3.49272 | 15349 ft | 350 kts | 328° |
| 2026-05-04 14:57 | 55.28246 | -3.51414 | 14841 ft | 346 kts | 328° |
| 2026-05-04 14:58 | 55.30299 | -3.53475 | 14290 ft | 344 kts | 328° |
| 2026-05-04 14:58 | 55.32373 | -3.55559 | 13744 ft | 342 kts | 328° |
| 2026-05-04 14:58 | 55.34321 | -3.57519 | 13325 ft | 338 kts | 328° |
| 2026-05-04 14:58 | 55.35674 | -3.58880 | 13147 ft | 339 kts | 328° |
| 2026-05-04 14:59 | 55.38410 | -3.61637 | 12777 ft | 341 kts | 328° |
| 2026-05-04 14:59 | 55.40585 | -3.63840 | 12495 ft | 374 kts | 328° |
| 2026-05-04 14:59 | 55.45065 | -3.68367 | 11906 ft | 367 kts | 328° |
| 2026-05-04 15:00 | 55.47277 | -3.70604 | 11636 ft | 366 kts | 328° |
| 2026-05-04 15:00 | 55.49446 | -3.72802 | 11358 ft | 363 kts | 328° |
| 2026-05-04 15:00 | 55.51628 | -3.75019 | 11077 ft | 362 kts | 327° |
| 2026-05-04 15:01 | 55.55980 | -3.79451 | 10536 ft | 360 kts | 328° |
| 2026-05-04 15:01 | 55.58151 | -3.81668 | 10109 ft | 361 kts | 328° |
| 2026-05-04 15:01 | 55.60303 | -3.83866 | 9520 ft | 356 kts | 327° |
| 2026-05-04 15:01 | 55.62388 | -3.85998 | 8996 ft | 350 kts | 327° |
| 2026-05-04 15:02 | 55.64497 | -3.88159 | 8459 ft | 351 kts | 327° |
| 2026-05-04 15:02 | 55.66596 | -3.90316 | 7917 ft | 346 kts | 328° |
| 2026-05-04 15:02 | 55.68428 | -3.92199 | 7450 ft | 345 kts | 328° |
| 2026-05-04 15:02 | 55.70513 | -3.94183 | 7067 ft | 343 kts | 333° |
| 2026-05-04 15:03 | 55.72629 | -3.95664 | 6703 ft | 325 kts | 336° |
| 2026-05-04 15:03 | 55.74680 | -3.97079 | 6323 ft | 308 kts | 336° |
| 2026-05-04 15:03 | 55.76620 | -3.98439 | 5930 ft | 293 kts | 336° |
| 2026-05-04 15:03 | 55.78456 | -3.99734 | 5547 ft | 280 kts | 336° |
| 2026-05-04 15:04 | 55.80226 | -4.00984 | 5160 ft | 268 kts | 336° |
| 2026-05-04 15:04 | 55.81877 | -4.02149 | 4956 ft | 243 kts | 336° |
| 2026-05-04 15:04 | 55.83341 | -4.03175 | 4683 ft | 212 kts | 336° |
| 2026-05-04 15:04 | 55.84613 | -4.04068 | 4437 ft | 188 kts | 335° |
| 2026-05-04 15:05 | 55.85706 | -4.04837 | 4296 ft | 163 kts | 336° |
| 2026-05-04 15:05 | 55.86695 | -4.05536 | 4073 ft | 146 kts | 335° |
| 2026-05-04 15:05 | 55.87619 | -4.06188 | 3699 ft | 142 kts | 334° |
| 2026-05-04 15:05 | 55.88542 | -4.06844 | 3309 ft | 142 kts | 333° |
| 2026-05-04 15:06 | 55.89435 | -4.07478 | 3028 ft | 136 kts | 334° |
| 2026-05-04 15:06 | 55.90324 | -4.08113 | 2936 ft | 150 kts | 335° |
| 2026-05-04 15:06 | 55.91317 | -4.08821 | 2942 ft | 153 kts | 334° |
| 2026-05-04 15:07 | 55.93233 | -4.10175 | 2939 ft | 154 kts | 334° |
| 2026-05-04 15:07 | 55.94230 | -4.10876 | 2944 ft | 157 kts | 334° |
| 2026-05-04 15:07 | 55.95234 | -4.11588 | 2937 ft | 153 kts | 334° |
| 2026-05-04 15:07 | 55.96236 | -4.12298 | 2941 ft | 157 kts | 335° |
| 2026-05-04 15:08 | 55.97240 | -4.13016 | 2947 ft | 155 kts | 335° |
| 2026-05-04 15:08 | 55.98237 | -4.13721 | 2941 ft | 156 kts | 335° |
| 2026-05-04 15:08 | 55.99233 | -4.14440 | 2924 ft | 153 kts | 330° |
| 2026-05-04 15:08 | 55.99808 | -4.15165 | 2873 ft | 153 kts | 310° |
| 2026-05-04 15:09 | 56.00229 | -4.16811 | 2809 ft | 149 kts | 276° |
| 2026-05-04 15:09 | 55.99882 | -4.19191 | 2723 ft | 158 kts | 243° |
| 2026-05-04 15:09 | 55.99640 | -4.19843 | 2701 ft | 163 kts | 237° |
| 2026-05-04 15:10 | 55.98203 | -4.22678 | 2554 ft | 159 kts | 231° |
| 2026-05-04 15:10 | 55.97695 | -4.23633 | 2511 ft | 162 kts | 230° |
| 2026-05-04 15:10 | 55.96186 | -4.26471 | 2355 ft | 157 kts | 231° |
| 2026-05-04 15:11 | 55.95426 | -4.27898 | 2209 ft | 158 kts | 230° |
| 2026-05-04 15:11 | 55.94441 | -4.29749 | 1951 ft | 155 kts | 231° |
| 2026-05-04 15:11 | 55.93735 | -4.31064 | 1758 ft | 139 kts | 233° |
| 2026-05-04 15:11 | 55.93298 | -4.31886 | 1630 ft | 133 kts | 233° |
| 2026-05-04 15:12 | 55.92648 | -4.33116 | 1452 ft | 139 kts | 233° |
| 2026-05-04 15:12 | 55.91991 | -4.34350 | 1246 ft | 139 kts | 231° |
| 2026-05-04 15:12 | 55.91321 | -4.35572 | 1070 ft | 139 kts | 230° |
| 2026-05-04 15:12 | 55.90654 | -4.36833 | 867 ft | 141 kts | 229° |
| 2026-05-04 15:13 | 55.90009 | -4.38047 | 633 ft | 135 kts | 231° |
| 2026-05-04 15:13 | 55.89351 | -4.39290 | 428 ft | 142 kts | 230° |
| 2026-05-04 15:13 | 55.88467 | -4.40940 | 244 ft | 139 kts | 228° |
| 2026-05-04 15:13 | 55.88009 | -4.41790 | 132 ft | 141 kts | 230° |
| 2026-05-04 15:14 | 55.87364 | -4.43008 | 27 ft | 127 kts | 229° |
| 2026-05-04 15:14 | 55.86955 | -4.43792 | 31 ft | 61 kts | 224° |
| 2026-05-04 15:14 | 55.86720 | -4.44210 | 32 ft | 29 kts | 219° |
| 2026-05-04 15:14 | 55.86612 | -4.44158 | 30 ft | 14 kts | 86° |
| 2026-05-04 15:15 | 55.86619 | -4.44072 | 29 ft | 21 kts | 86° |
| 2026-05-04 15:15 | 55.86696 | -4.43841 | 27 ft | 24 kts | 44° |
| 2026-05-04 15:15 | 55.86749 | -4.43619 | 29 ft | 19 kts | 75° |
| 2026-05-04 15:16 | 55.86836 | -4.43105 | 31 ft | 20 kts | 73° |
| 2026-05-04 15:16 | 55.86808 | -4.42995 | 31 ft | 9 kts | 168° |
| 2026-05-04 15:16 | 55.86743 | -4.43094 | 31 ft | 2 kts | 209° |